sensor_id;sensor_type;location;lat;lon;timestamp;P1;durP1;ratioP1;P2;durP2;ratioP2
15841;SDS011;8021;48.022;11.812;2022-07-11T00:01:14;0.20;;;0.20;;
15841;SDS011;8021;48.022;11.812;2022-07-11T00:03:43;0.30;;;0.20;;
15841;SDS011;8021;48.022;11.812;2022-07-11T00:06:12;0.20;;;0.20;;
15841;SDS011;8021;48.022;11.812;2022-07-11T00:08:40;0.25;;;0.20;;
15841;SDS011;8021;48.022;11.812;2022-07-11T00:11:08;0.20;;;0.20;;
15841;SDS011;8021;48.022;11.812;2022-07-11T00:13:36;0.30;;;0.30;;
15841;SDS011;8021;48.022;11.812;2022-07-11T00:16:04;0.30;;;0.20;;
15841;SDS011;8021;48.022;11.812;2022-07-11T00:18:37;0.28;;;0.20;;
15841;SDS011;8021;48.022;11.812;2022-07-11T00:21:07;0.30;;;0.30;;
15841;SDS011;8021;48.022;11.812;2022-07-11T00:23:34;0.30;;;0.20;;
15841;SDS011;8021;48.022;11.812;2022-07-11T00:26:02;0.20;;;0.17;;
15841;SDS011;8021;48.022;11.812;2022-07-11T00:28:29;0.30;;;0.30;;
15841;SDS011;8021;48.022;11.812;2022-07-11T00:30:57;0.30;;;0.30;;
15841;SDS011;8021;48.022;11.812;2022-07-11T00:33:25;0.20;;;0.15;;
15841;SDS011;8021;48.022;11.812;2022-07-11T00:35:52;0.20;;;0.20;;
15841;SDS011;8021;48.022;11.812;2022-07-11T00:38:21;0.20;;;0.20;;
15841;SDS011;8021;48.022;11.812;2022-07-11T00:40:49;0.30;;;0.30;;
15841;SDS011;8021;48.022;11.812;2022-07-11T00:43:16;0.30;;;0.20;;
15841;SDS011;8021;48.022;11.812;2022-07-11T00:45:47;0.20;;;0.20;;
15841;SDS011;8021;48.022;11.812;2022-07-11T00:48:15;0.20;;;0.20;;
15841;SDS011;8021;48.022;11.812;2022-07-11T00:50:42;0.30;;;0.20;;
15841;SDS011;8021;48.022;11.812;2022-07-11T00:53:10;0.30;;;0.30;;
15841;SDS011;8021;48.022;11.812;2022-07-11T00:55:39;0.30;;;0.30;;
15841;SDS011;8021;48.022;11.812;2022-07-11T00:58:07;0.20;;;0.20;;
15841;SDS011;8021;48.022;11.812;2022-07-11T01:00:34;0.28;;;0.20;;
15841;SDS011;8021;48.022;11.812;2022-07-11T01:03:02;0.30;;;0.20;;
15841;SDS011;8021;48.022;11.812;2022-07-11T01:05:30;0.30;;;0.20;;
15841;SDS011;8021;48.022;11.812;2022-07-11T01:07:58;0.20;;;0.20;;
15841;SDS011;8021;48.022;11.812;2022-07-11T01:10:26;0.30;;;0.30;;
15841;SDS011;8021;48.022;11.812;2022-07-11T01:12:55;0.20;;;0.20;;
15841;SDS011;8021;48.022;11.812;2022-07-11T01:15:23;0.30;;;0.20;;
15841;SDS011;8021;48.022;11.812;2022-07-11T01:17:50;0.30;;;0.20;;
15841;SDS011;8021;48.022;11.812;2022-07-11T01:20:19;0.20;;;0.20;;
15841;SDS011;8021;48.022;11.812;2022-07-11T01:22:47;0.30;;;0.20;;
15841;SDS011;8021;48.022;11.812;2022-07-11T01:25:16;0.30;;;0.20;;
15841;SDS011;8021;48.022;11.812;2022-07-11T01:27:56;0.20;;;0.20;;
15841;SDS011;8021;48.022;11.812;2022-07-11T01:30:24;0.28;;;0.20;;
15841;SDS011;8021;48.022;11.812;2022-07-11T01:32:52;0.28;;;0.20;;
15841;SDS011;8021;48.022;11.812;2022-07-11T01:35:20;0.20;;;0.20;;
15841;SDS011;8021;48.022;11.812;2022-07-11T01:37:48;0.30;;;0.30;;
15841;SDS011;8021;48.022;11.812;2022-07-11T01:40:28;0.30;;;0.25;;
15841;SDS011;8021;48.022;11.812;2022-07-11T01:42:56;0.30;;;0.20;;
15841;SDS011;8021;48.022;11.812;2022-07-11T01:45:23;0.20;;;0.20;;
15841;SDS011;8021;48.022;11.812;2022-07-11T01:47:51;0.20;;;0.20;;
15841;SDS011;8021;48.022;11.812;2022-07-11T01:50:18;0.20;;;0.20;;
15841;SDS011;8021;48.022;11.812;2022-07-11T01:52:46;0.20;;;0.10;;
15841;SDS011;8021;48.022;11.812;2022-07-11T01:55:13;0.30;;;0.20;;
15841;SDS011;8021;48.022;11.812;2022-07-11T01:57:42;0.25;;;0.20;;
15841;SDS011;8021;48.022;11.812;2022-07-11T02:00:10;0.30;;;0.20;;
15841;SDS011;8021;48.022;11.812;2022-07-11T02:02:37;0.30;;;0.20;;
15841;SDS011;8021;48.022;11.812;2022-07-11T02:05:05;0.20;;;0.15;;
15841;SDS011;8021;48.022;11.812;2022-07-11T02:07:33;0.20;;;0.20;;
15841;SDS011;8021;48.022;11.812;2022-07-11T02:10:18;0.20;;;0.20;;
15841;SDS011;8021;48.022;11.812;2022-07-11T02:12:47;0.30;;;0.28;;
15841;SDS011;8021;48.022;11.812;2022-07-11T02:15:14;0.30;;;0.20;;
15841;SDS011;8021;48.022;11.812;2022-07-11T02:17:42;0.20;;;0.20;;
15841;SDS011;8021;48.022;11.812;2022-07-11T02:20:10;0.30;;;0.25;;
15841;SDS011;8021;48.022;11.812;2022-07-11T02:22:43;0.30;;;0.20;;
15841;SDS011;8021;48.022;11.812;2022-07-11T02:25:10;0.30;;;0.20;;
15841;SDS011;8021;48.022;11.812;2022-07-11T02:27:38;0.30;;;0.30;;
15841;SDS011;8021;48.022;11.812;2022-07-11T02:30:08;0.30;;;0.20;;
15841;SDS011;8021;48.022;11.812;2022-07-11T02:32:35;0.30;;;0.30;;
15841;SDS011;8021;48.022;11.812;2022-07-11T02:35:03;0.30;;;0.20;;
15841;SDS011;8021;48.022;11.812;2022-07-11T02:37:31;0.20;;;0.20;;
15841;SDS011;8021;48.022;11.812;2022-07-11T02:40:23;0.30;;;0.20;;
15841;SDS011;8021;48.022;11.812;2022-07-11T02:42:50;0.20;;;0.20;;
15841;SDS011;8021;48.022;11.812;2022-07-11T02:45:19;0.20;;;0.20;;
15841;SDS011;8021;48.022;11.812;2022-07-11T02:47:47;0.30;;;0.20;;
15841;SDS011;8021;48.022;11.812;2022-07-11T02:50:14;0.30;;;0.30;;
15841;SDS011;8021;48.022;11.812;2022-07-11T02:52:42;0.20;;;0.20;;
15841;SDS011;8021;48.022;11.812;2022-07-11T02:55:10;0.20;;;0.20;;
15841;SDS011;8021;48.022;11.812;2022-07-11T02:57:38;0.28;;;0.20;;
15841;SDS011;8021;48.022;11.812;2022-07-11T03:00:07;0.25;;;0.20;;
15841;SDS011;8021;48.022;11.812;2022-07-11T03:02:37;0.20;;;0.20;;
15841;SDS011;8021;48.022;11.812;2022-07-11T03:05:05;0.22;;;0.20;;
15841;SDS011;8021;48.022;11.812;2022-07-11T03:07:33;0.28;;;0.20;;
15841;SDS011;8021;48.022;11.812;2022-07-11T03:10:00;0.28;;;0.20;;
15841;SDS011;8021;48.022;11.812;2022-07-11T03:12:28;0.20;;;0.20;;
15841;SDS011;8021;48.022;11.812;2022-07-11T03:14:56;0.20;;;0.20;;
15841;SDS011;8021;48.022;11.812;2022-07-11T03:17:23;0.30;;;0.20;;
15841;SDS011;8021;48.022;11.812;2022-07-11T03:19:53;0.20;;;0.20;;
15841;SDS011;8021;48.022;11.812;2022-07-11T03:22:20;0.30;;;0.30;;
15841;SDS011;8021;48.022;11.812;2022-07-11T03:24:49;0.25;;;0.20;;
15841;SDS011;8021;48.022;11.812;2022-07-11T03:27:17;0.20;;;0.20;;
15841;SDS011;8021;48.022;11.812;2022-07-11T03:29:45;0.30;;;0.30;;
15841;SDS011;8021;48.022;11.812;2022-07-11T03:32:12;0.30;;;0.20;;
15841;SDS011;8021;48.022;11.812;2022-07-11T03:34:40;0.20;;;0.20;;
15841;SDS011;8021;48.022;11.812;2022-07-11T03:37:29;0.30;;;0.20;;
15841;SDS011;8021;48.022;11.812;2022-07-11T03:39:56;0.30;;;0.20;;
15841;SDS011;8021;48.022;11.812;2022-07-11T03:42:30;0.30;;;0.30;;
15841;SDS011;8021;48.022;11.812;2022-07-11T03:44:58;0.30;;;0.30;;
15841;SDS011;8021;48.022;11.812;2022-07-11T03:47:25;0.30;;;0.20;;
15841;SDS011;8021;48.022;11.812;2022-07-11T03:49:53;0.30;;;0.20;;
15841;SDS011;8021;48.022;11.812;2022-07-11T03:52:20;0.20;;;0.20;;
15841;SDS011;8021;48.022;11.812;2022-07-11T03:54:49;0.20;;;0.20;;
15841;SDS011;8021;48.022;11.812;2022-07-11T03:57:17;0.30;;;0.22;;
15841;SDS011;8021;48.022;11.812;2022-07-11T03:59:44;0.20;;;0.20;;
15841;SDS011;8021;48.022;11.812;2022-07-11T04:02:12;0.28;;;0.20;;
15841;SDS011;8021;48.022;11.812;2022-07-11T04:04:40;0.20;;;0.20;;
15841;SDS011;8021;48.022;11.812;2022-07-11T04:07:07;0.30;;;0.28;;
15841;SDS011;8021;48.022;11.812;2022-07-11T04:09:35;0.20;;;0.20;;
15841;SDS011;8021;48.022;11.812;2022-07-11T04:12:04;0.20;;;0.20;;
15841;SDS011;8021;48.022;11.812;2022-07-11T04:14:32;0.30;;;0.20;;
15841;SDS011;8021;48.022;11.812;2022-07-11T04:16:59;0.30;;;0.20;;
15841;SDS011;8021;48.022;11.812;2022-07-11T04:19:27;0.20;;;0.20;;
15841;SDS011;8021;48.022;11.812;2022-07-11T04:21:55;0.20;;;0.20;;
15841;SDS011;8021;48.022;11.812;2022-07-11T04:24:22;0.30;;;0.20;;
15841;SDS011;8021;48.022;11.812;2022-07-11T04:26:50;0.30;;;0.20;;
15841;SDS011;8021;48.022;11.812;2022-07-11T04:29:45;0.20;;;0.20;;
15841;SDS011;8021;48.022;11.812;2022-07-11T04:32:13;0.30;;;0.20;;
15841;SDS011;8021;48.022;11.812;2022-07-11T04:34:40;0.30;;;0.30;;
15841;SDS011;8021;48.022;11.812;2022-07-11T04:43:05;0.20;;;0.20;;
15841;SDS011;8021;48.022;11.812;2022-07-11T04:45:33;0.20;;;0.20;;
15841;SDS011;8021;48.022;11.812;2022-07-11T04:48:01;0.20;;;0.20;;
15841;SDS011;8021;48.022;11.812;2022-07-11T04:50:29;0.20;;;0.20;;
15841;SDS011;8021;48.022;11.812;2022-07-11T04:52:56;0.20;;;0.20;;
15841;SDS011;8021;48.022;11.812;2022-07-11T04:55:24;0.20;;;0.20;;
15841;SDS011;8021;48.022;11.812;2022-07-11T04:57:51;0.20;;;0.20;;
15841;SDS011;8021;48.022;11.812;2022-07-11T05:00:19;0.30;;;0.20;;
15841;SDS011;8021;48.022;11.812;2022-07-11T05:02:48;0.20;;;0.20;;
15841;SDS011;8021;48.022;11.812;2022-07-11T05:05:16;0.20;;;0.20;;
15841;SDS011;8021;48.022;11.812;2022-07-11T05:07:45;0.20;;;0.20;;
15841;SDS011;8021;48.022;11.812;2022-07-11T05:10:17;0.20;;;0.20;;
15841;SDS011;8021;48.022;11.812;2022-07-11T05:12:44;0.20;;;0.20;;
15841;SDS011;8021;48.022;11.812;2022-07-11T05:15:12;0.20;;;0.10;;
15841;SDS011;8021;48.022;11.812;2022-07-11T05:17:39;0.20;;;0.20;;
15841;SDS011;8021;48.022;11.812;2022-07-11T05:20:13;0.20;;;0.20;;
15841;SDS011;8021;48.022;11.812;2022-07-11T05:22:42;0.20;;;0.20;;
15841;SDS011;8021;48.022;11.812;2022-07-11T05:25:10;0.20;;;0.10;;
15841;SDS011;8021;48.022;11.812;2022-07-11T05:27:37;0.20;;;0.10;;
15841;SDS011;8021;48.022;11.812;2022-07-11T05:30:05;0.20;;;0.20;;
15841;SDS011;8021;48.022;11.812;2022-07-11T05:32:33;0.20;;;0.20;;
15841;SDS011;8021;48.022;11.812;2022-07-11T05:35:02;0.20;;;0.20;;
15841;SDS011;8021;48.022;11.812;2022-07-11T05:37:32;0.30;;;0.30;;
15841;SDS011;8021;48.022;11.812;2022-07-11T05:40:00;0.20;;;0.10;;
15841;SDS011;8021;48.022;11.812;2022-07-11T05:42:32;0.20;;;0.20;;
15841;SDS011;8021;48.022;11.812;2022-07-11T05:44:59;0.20;;;0.20;;
15841;SDS011;8021;48.022;11.812;2022-07-11T05:47:27;0.20;;;0.15;;
15841;SDS011;8021;48.022;11.812;2022-07-11T05:49:54;0.20;;;0.20;;
15841;SDS011;8021;48.022;11.812;2022-07-11T05:52:22;0.20;;;0.20;;
15841;SDS011;8021;48.022;11.812;2022-07-11T05:54:51;0.20;;;0.20;;
15841;SDS011;8021;48.022;11.812;2022-07-11T05:57:18;0.30;;;0.30;;
15841;SDS011;8021;48.022;11.812;2022-07-11T05:59:46;0.20;;;0.20;;
15841;SDS011;8021;48.022;11.812;2022-07-11T06:02:13;0.30;;;0.20;;
15841;SDS011;8021;48.022;11.812;2022-07-11T06:04:41;0.20;;;0.20;;
15841;SDS011;8021;48.022;11.812;2022-07-11T06:07:11;0.20;;;0.20;;
15841;SDS011;8021;48.022;11.812;2022-07-11T06:10:00;0.20;;;0.20;;
15841;SDS011;8021;48.022;11.812;2022-07-11T06:12:26;0.20;;;0.20;;
15841;SDS011;8021;48.022;11.812;2022-07-11T06:14:54;0.28;;;0.28;;
15841;SDS011;8021;48.022;11.812;2022-07-11T06:17:21;0.20;;;0.20;;
15841;SDS011;8021;48.022;11.812;2022-07-11T06:19:49;0.20;;;0.20;;
15841;SDS011;8021;48.022;11.812;2022-07-11T06:22:16;0.20;;;0.20;;
15841;SDS011;8021;48.022;11.812;2022-07-11T06:24:50;0.20;;;0.10;;
15841;SDS011;8021;48.022;11.812;2022-07-11T06:27:19;0.10;;;0.10;;
15841;SDS011;8021;48.022;11.812;2022-07-11T06:29:47;0.10;;;0.10;;
15841;SDS011;8021;48.022;11.812;2022-07-11T06:32:14;0.10;;;0.10;;
15841;SDS011;8021;48.022;11.812;2022-07-11T06:34:42;0.10;;;0.10;;
15841;SDS011;8021;48.022;11.812;2022-07-11T06:37:09;0.10;;;0.10;;
15841;SDS011;8021;48.022;11.812;2022-07-11T06:39:37;0.00;;;0.00;;
15841;SDS011;8021;48.022;11.812;2022-07-11T06:42:04;0.00;;;0.00;;
15841;SDS011;8021;48.022;11.812;2022-07-11T06:44:33;0.00;;;0.00;;
15841;SDS011;8021;48.022;11.812;2022-07-11T06:47:01;0.00;;;0.00;;
15841;SDS011;8021;48.022;11.812;2022-07-11T06:49:28;0.00;;;0.00;;
15841;SDS011;8021;48.022;11.812;2022-07-11T06:51:56;0.00;;;0.00;;
15841;SDS011;8021;48.022;11.812;2022-07-11T06:54:23;0.00;;;0.00;;
15841;SDS011;8021;48.022;11.812;2022-07-11T06:56:51;0.00;;;0.00;;
15841;SDS011;8021;48.022;11.812;2022-07-11T06:59:18;0.00;;;0.00;;
15841;SDS011;8021;48.022;11.812;2022-07-11T07:01:47;0.00;;;0.00;;
15841;SDS011;8021;48.022;11.812;2022-07-11T07:04:15;0.00;;;0.00;;
15841;SDS011;8021;48.022;11.812;2022-07-11T07:06:43;0.00;;;0.00;;
15841;SDS011;8021;48.022;11.812;2022-07-11T07:09:10;0.00;;;0.00;;
15841;SDS011;8021;48.022;11.812;2022-07-11T07:11:38;0.00;;;0.00;;
15841;SDS011;8021;48.022;11.812;2022-07-11T07:14:06;0.00;;;0.00;;
15841;SDS011;8021;48.022;11.812;2022-07-11T07:16:33;0.00;;;0.00;;
15841;SDS011;8021;48.022;11.812;2022-07-11T07:19:03;0.00;;;0.00;;
15841;SDS011;8021;48.022;11.812;2022-07-11T07:21:31;0.00;;;0.00;;
15841;SDS011;8021;48.022;11.812;2022-07-11T07:23:58;0.00;;;0.00;;
15841;SDS011;8021;48.022;11.812;2022-07-11T07:26:26;0.00;;;0.00;;
15841;SDS011;8021;48.022;11.812;2022-07-11T07:28:54;0.00;;;0.00;;
15841;SDS011;8021;48.022;11.812;2022-07-11T07:31:22;0.00;;;0.00;;
15841;SDS011;8021;48.022;11.812;2022-07-11T07:33:50;0.00;;;0.00;;
15841;SDS011;8021;48.022;11.812;2022-07-11T07:36:19;0.00;;;0.00;;
15841;SDS011;8021;48.022;11.812;2022-07-11T07:38:46;0.00;;;0.00;;
15841;SDS011;8021;48.022;11.812;2022-07-11T07:41:14;0.00;;;0.00;;
15841;SDS011;8021;48.022;11.812;2022-07-11T07:43:42;0.00;;;0.00;;
15841;SDS011;8021;48.022;11.812;2022-07-11T07:46:10;0.00;;;0.00;;
15841;SDS011;8021;48.022;11.812;2022-07-11T07:48:38;0.00;;;0.00;;
15841;SDS011;8021;48.022;11.812;2022-07-11T07:51:06;0.00;;;0.00;;
15841;SDS011;8021;48.022;11.812;2022-07-11T07:53:35;0.00;;;0.00;;
15841;SDS011;8021;48.022;11.812;2022-07-11T07:56:03;0.00;;;0.00;;
15841;SDS011;8021;48.022;11.812;2022-07-11T07:58:31;0.00;;;0.00;;
15841;SDS011;8021;48.022;11.812;2022-07-11T08:00:58;0.00;;;0.00;;
15841;SDS011;8021;48.022;11.812;2022-07-11T08:03:44;0.00;;;0.00;;
15841;SDS011;8021;48.022;11.812;2022-07-11T08:06:11;0.00;;;0.00;;
15841;SDS011;8021;48.022;11.812;2022-07-11T08:08:40;0.00;;;0.00;;
15841;SDS011;8021;48.022;11.812;2022-07-11T08:11:08;0.00;;;0.00;;
15841;SDS011;8021;48.022;11.812;2022-07-11T08:13:55;0.10;;;0.10;;
15841;SDS011;8021;48.022;11.812;2022-07-11T08:16:23;0.10;;;0.10;;
15841;SDS011;8021;48.022;11.812;2022-07-11T08:18:51;0.10;;;0.10;;
15841;SDS011;8021;48.022;11.812;2022-07-11T08:21:22;0.10;;;0.10;;
15841;SDS011;8021;48.022;11.812;2022-07-11T08:23:51;0.10;;;0.10;;
15841;SDS011;8021;48.022;11.812;2022-07-11T08:26:18;0.10;;;0.10;;
15841;SDS011;8021;48.022;11.812;2022-07-11T08:28:46;0.10;;;0.10;;
15841;SDS011;8021;48.022;11.812;2022-07-11T08:31:13;0.10;;;0.10;;
15841;SDS011;8021;48.022;11.812;2022-07-11T08:33:41;0.10;;;0.10;;
15841;SDS011;8021;48.022;11.812;2022-07-11T08:36:08;0.10;;;0.10;;
15841;SDS011;8021;48.022;11.812;2022-07-11T08:38:36;0.10;;;0.10;;
15841;SDS011;8021;48.022;11.812;2022-07-11T08:41:06;0.20;;;0.20;;
15841;SDS011;8021;48.022;11.812;2022-07-11T08:43:34;0.10;;;0.10;;
15841;SDS011;8021;48.022;11.812;2022-07-11T08:46:02;0.20;;;0.20;;
15841;SDS011;8021;48.022;11.812;2022-07-11T08:48:29;0.10;;;0.10;;
15841;SDS011;8021;48.022;11.812;2022-07-11T08:50:58;0.10;;;0.10;;
15841;SDS011;8021;48.022;11.812;2022-07-11T08:53:26;0.10;;;0.10;;
15841;SDS011;8021;48.022;11.812;2022-07-11T08:55:55;0.10;;;0.10;;
15841;SDS011;8021;48.022;11.812;2022-07-11T08:58:24;0.10;;;0.10;;
15841;SDS011;8021;48.022;11.812;2022-07-11T09:00:52;0.10;;;0.10;;
15841;SDS011;8021;48.022;11.812;2022-07-11T09:03:19;0.10;;;0.10;;
15841;SDS011;8021;48.022;11.812;2022-07-11T09:05:48;0.10;;;0.10;;
15841;SDS011;8021;48.022;11.812;2022-07-11T09:08:16;0.10;;;0.10;;
15841;SDS011;8021;48.022;11.812;2022-07-11T09:10:43;0.10;;;0.10;;
15841;SDS011;8021;48.022;11.812;2022-07-11T09:13:12;0.10;;;0.10;;
15841;SDS011;8021;48.022;11.812;2022-07-11T09:15:44;0.10;;;0.10;;
15841;SDS011;8021;48.022;11.812;2022-07-11T09:20:55;0.10;;;0.10;;
15841;SDS011;8021;48.022;11.812;2022-07-11T09:23:41;0.10;;;0.10;;
15841;SDS011;8021;48.022;11.812;2022-07-11T09:26:28;0.10;;;0.10;;
15841;SDS011;8021;48.022;11.812;2022-07-11T09:28:59;0.10;;;0.10;;
15841;SDS011;8021;48.022;11.812;2022-07-11T09:31:28;0.10;;;0.10;;
15841;SDS011;8021;48.022;11.812;2022-07-11T09:34:01;0.10;;;0.10;;
15841;SDS011;8021;48.022;11.812;2022-07-11T09:36:39;0.10;;;0.10;;
15841;SDS011;8021;48.022;11.812;2022-07-11T09:39:07;0.10;;;0.10;;
15841;SDS011;8021;48.022;11.812;2022-07-11T09:41:35;0.10;;;0.10;;
15841;SDS011;8021;48.022;11.812;2022-07-11T09:44:07;0.10;;;0.10;;
15841;SDS011;8021;48.022;11.812;2022-07-11T09:46:36;0.10;;;0.10;;
15841;SDS011;8021;48.022;11.812;2022-07-11T09:49:04;0.10;;;0.10;;
15841;SDS011;8021;48.022;11.812;2022-07-11T09:51:33;0.10;;;0.10;;
15841;SDS011;8021;48.022;11.812;2022-07-11T09:54:00;0.10;;;0.10;;
15841;SDS011;8021;48.022;11.812;2022-07-11T09:56:34;0.10;;;0.10;;
15841;SDS011;8021;48.022;11.812;2022-07-11T09:59:22;0.10;;;0.10;;
15841;SDS011;8021;48.022;11.812;2022-07-11T10:01:51;0.10;;;0.10;;
15841;SDS011;8021;48.022;11.812;2022-07-11T10:04:18;0.10;;;0.10;;
15841;SDS011;8021;48.022;11.812;2022-07-11T10:06:47;0.10;;;0.10;;
15841;SDS011;8021;48.022;11.812;2022-07-11T10:09:14;0.10;;;0.10;;
15841;SDS011;8021;48.022;11.812;2022-07-11T10:11:43;0.10;;;0.10;;
15841;SDS011;8021;48.022;11.812;2022-07-11T10:14:11;0.10;;;0.10;;
15841;SDS011;8021;48.022;11.812;2022-07-11T10:16:42;0.17;;;0.17;;
15841;SDS011;8021;48.022;11.812;2022-07-11T10:19:14;0.10;;;0.10;;
15841;SDS011;8021;48.022;11.812;2022-07-11T10:21:45;0.10;;;0.10;;
15841;SDS011;8021;48.022;11.812;2022-07-11T10:24:24;0.10;;;0.10;;
15841;SDS011;8021;48.022;11.812;2022-07-11T10:26:54;0.10;;;0.10;;
15841;SDS011;8021;48.022;11.812;2022-07-11T10:29:27;0.10;;;0.10;;
15841;SDS011;8021;48.022;11.812;2022-07-11T10:32:03;0.10;;;0.10;;
15841;SDS011;8021;48.022;11.812;2022-07-11T10:34:43;0.10;;;0.10;;
15841;SDS011;8021;48.022;11.812;2022-07-11T10:37:11;0.10;;;0.10;;
15841;SDS011;8021;48.022;11.812;2022-07-11T10:39:39;0.00;;;0.00;;
15841;SDS011;8021;48.022;11.812;2022-07-11T10:42:18;0.10;;;0.10;;
15841;SDS011;8021;48.022;11.812;2022-07-11T10:44:47;0.10;;;0.10;;
15841;SDS011;8021;48.022;11.812;2022-07-11T10:49:58;0.08;;;0.00;;
15841;SDS011;8021;48.022;11.812;2022-07-11T10:52:28;0.10;;;0.10;;
15841;SDS011;8021;48.022;11.812;2022-07-11T10:55:02;0.10;;;0.10;;
15841;SDS011;8021;48.022;11.812;2022-07-11T10:57:31;0.10;;;0.10;;
15841;SDS011;8021;48.022;11.812;2022-07-11T11:00:02;0.10;;;0.10;;
15841;SDS011;8021;48.022;11.812;2022-07-11T11:02:31;0.10;;;0.10;;
15841;SDS011;8021;48.022;11.812;2022-07-11T11:05:00;0.10;;;0.10;;
15841;SDS011;8021;48.022;11.812;2022-07-11T11:07:29;0.10;;;0.10;;
15841;SDS011;8021;48.022;11.812;2022-07-11T11:09:57;0.10;;;0.10;;
15841;SDS011;8021;48.022;11.812;2022-07-11T11:15:32;0.10;;;0.10;;
15841;SDS011;8021;48.022;11.812;2022-07-11T11:20:43;0.10;;;0.10;;
15841;SDS011;8021;48.022;11.812;2022-07-11T11:23:11;0.10;;;0.10;;
15841;SDS011;8021;48.022;11.812;2022-07-11T11:25:39;0.10;;;0.10;;
15841;SDS011;8021;48.022;11.812;2022-07-11T11:28:06;0.10;;;0.10;;
15841;SDS011;8021;48.022;11.812;2022-07-11T11:30:35;0.10;;;0.10;;
15841;SDS011;8021;48.022;11.812;2022-07-11T11:33:14;0.10;;;0.10;;
15841;SDS011;8021;48.022;11.812;2022-07-11T11:35:42;0.10;;;0.10;;
15841;SDS011;8021;48.022;11.812;2022-07-11T11:38:10;0.10;;;0.10;;
15841;SDS011;8021;48.022;11.812;2022-07-11T11:40:46;0.10;;;0.10;;
15841;SDS011;8021;48.022;11.812;2022-07-11T11:46:06;0.10;;;0.10;;
15841;SDS011;8021;48.022;11.812;2022-07-11T11:48:34;0.10;;;0.10;;
15841;SDS011;8021;48.022;11.812;2022-07-11T11:51:02;0.10;;;0.10;;
15841;SDS011;8021;48.022;11.812;2022-07-11T11:53:35;0.00;;;0.00;;
15841;SDS011;8021;48.022;11.812;2022-07-11T11:56:10;0.10;;;0.10;;
15841;SDS011;8021;48.022;11.812;2022-07-11T11:58:38;0.00;;;0.00;;
15841;SDS011;8021;48.022;11.812;2022-07-11T12:01:06;0.10;;;0.10;;
15841;SDS011;8021;48.022;11.812;2022-07-11T12:03:45;0.10;;;0.10;;
15841;SDS011;8021;48.022;11.812;2022-07-11T12:06:13;0.10;;;0.10;;
15841;SDS011;8021;48.022;11.812;2022-07-11T12:08:42;0.10;;;0.10;;
15841;SDS011;8021;48.022;11.812;2022-07-11T12:11:13;0.10;;;0.10;;
15841;SDS011;8021;48.022;11.812;2022-07-11T12:13:41;0.10;;;0.10;;
15841;SDS011;8021;48.022;11.812;2022-07-11T12:16:12;0.10;;;0.10;;
15841;SDS011;8021;48.022;11.812;2022-07-11T12:18:58;0.10;;;0.10;;
15841;SDS011;8021;48.022;11.812;2022-07-11T12:21:25;0.10;;;0.10;;
15841;SDS011;8021;48.022;11.812;2022-07-11T12:23:57;0.10;;;0.10;;
15841;SDS011;8021;48.022;11.812;2022-07-11T12:26:26;0.10;;;0.10;;
15841;SDS011;8021;48.022;11.812;2022-07-11T12:29:07;0.10;;;0.10;;
15841;SDS011;8021;48.022;11.812;2022-07-11T12:31:40;0.10;;;0.10;;
15841;SDS011;8021;48.022;11.812;2022-07-11T12:34:08;0.10;;;0.10;;
15841;SDS011;8021;48.022;11.812;2022-07-11T12:36:36;0.10;;;0.10;;
15841;SDS011;8021;48.022;11.812;2022-07-11T12:39:05;0.10;;;0.10;;
15841;SDS011;8021;48.022;11.812;2022-07-11T12:41:33;0.10;;;0.10;;
15841;SDS011;8021;48.022;11.812;2022-07-11T12:44:01;0.20;;;0.20;;
15841;SDS011;8021;48.022;11.812;2022-07-11T12:46:46;0.10;;;0.10;;
15841;SDS011;8021;48.022;11.812;2022-07-11T12:49:17;0.10;;;0.10;;
15841;SDS011;8021;48.022;11.812;2022-07-11T12:51:45;0.10;;;0.10;;
15841;SDS011;8021;48.022;11.812;2022-07-11T12:54:15;0.00;;;0.00;;
15841;SDS011;8021;48.022;11.812;2022-07-11T12:56:51;0.10;;;0.10;;
15841;SDS011;8021;48.022;11.812;2022-07-11T12:59:20;0.10;;;0.10;;
15841;SDS011;8021;48.022;11.812;2022-07-11T13:01:54;0.10;;;0.10;;
15841;SDS011;8021;48.022;11.812;2022-07-11T13:04:32;0.10;;;0.10;;
15841;SDS011;8021;48.022;11.812;2022-07-11T13:10:21;0.10;;;0.10;;
15841;SDS011;8021;48.022;11.812;2022-07-11T13:12:49;0.00;;;0.00;;
15841;SDS011;8021;48.022;11.812;2022-07-11T13:15:17;0.10;;;0.10;;
15841;SDS011;8021;48.022;11.812;2022-07-11T13:17:45;0.10;;;0.10;;
15841;SDS011;8021;48.022;11.812;2022-07-11T13:20:15;0.10;;;0.10;;
15841;SDS011;8021;48.022;11.812;2022-07-11T13:22:44;0.10;;;0.10;;
15841;SDS011;8021;48.022;11.812;2022-07-11T13:25:12;0.10;;;0.10;;
15841;SDS011;8021;48.022;11.812;2022-07-11T13:27:42;0.10;;;0.10;;
15841;SDS011;8021;48.022;11.812;2022-07-11T13:30:10;0.10;;;0.10;;
15841;SDS011;8021;48.022;11.812;2022-07-11T13:32:40;0.10;;;0.10;;
15841;SDS011;8021;48.022;11.812;2022-07-11T13:35:08;0.10;;;0.10;;
15841;SDS011;8021;48.022;11.812;2022-07-11T13:37:42;0.10;;;0.10;;
15841;SDS011;8021;48.022;11.812;2022-07-11T13:40:11;0.10;;;0.10;;
15841;SDS011;8021;48.022;11.812;2022-07-11T13:42:39;0.10;;;0.10;;
15841;SDS011;8021;48.022;11.812;2022-07-11T13:45:09;0.10;;;0.10;;
15841;SDS011;8021;48.022;11.812;2022-07-11T13:47:36;0.10;;;0.10;;
15841;SDS011;8021;48.022;11.812;2022-07-11T13:52:56;0.10;;;0.10;;
15841;SDS011;8021;48.022;11.812;2022-07-11T13:55:23;0.10;;;0.10;;
15841;SDS011;8021;48.022;11.812;2022-07-11T13:57:55;0.10;;;0.05;;
15841;SDS011;8021;48.022;11.812;2022-07-11T14:00:24;0.10;;;0.10;;
15841;SDS011;8021;48.022;11.812;2022-07-11T14:02:52;0.10;;;0.10;;
15841;SDS011;8021;48.022;11.812;2022-07-11T14:05:19;0.10;;;0.10;;
15841;SDS011;8021;48.022;11.812;2022-07-11T14:07:47;0.10;;;0.10;;
15841;SDS011;8021;48.022;11.812;2022-07-11T14:10:17;0.10;;;0.10;;
15841;SDS011;8021;48.022;11.812;2022-07-11T14:12:44;0.10;;;0.10;;
15841;SDS011;8021;48.022;11.812;2022-07-11T14:15:12;0.10;;;0.10;;
15841;SDS011;8021;48.022;11.812;2022-07-11T14:17:41;0.08;;;0.03;;
15841;SDS011;8021;48.022;11.812;2022-07-11T14:20:09;0.00;;;0.00;;
15841;SDS011;8021;48.022;11.812;2022-07-11T14:22:37;0.10;;;0.10;;
15841;SDS011;8021;48.022;11.812;2022-07-11T14:25:05;0.10;;;0.10;;
15841;SDS011;8021;48.022;11.812;2022-07-11T14:27:32;0.10;;;0.10;;
15841;SDS011;8021;48.022;11.812;2022-07-11T14:30:03;0.10;;;0.10;;
15841;SDS011;8021;48.022;11.812;2022-07-11T14:32:31;0.20;;;0.20;;
15841;SDS011;8021;48.022;11.812;2022-07-11T14:35:00;0.10;;;0.10;;
15841;SDS011;8021;48.022;11.812;2022-07-11T14:37:27;0.10;;;0.10;;
15841;SDS011;8021;48.022;11.812;2022-07-11T14:39:55;0.10;;;0.10;;
15841;SDS011;8021;48.022;11.812;2022-07-11T14:42:23;0.10;;;0.10;;
15841;SDS011;8021;48.022;11.812;2022-07-11T14:45:08;0.10;;;0.10;;
15841;SDS011;8021;48.022;11.812;2022-07-11T14:47:36;0.10;;;0.10;;
15841;SDS011;8021;48.022;11.812;2022-07-11T14:50:06;0.10;;;0.10;;
15841;SDS011;8021;48.022;11.812;2022-07-11T14:52:34;0.00;;;0.00;;
15841;SDS011;8021;48.022;11.812;2022-07-11T14:55:02;0.10;;;0.10;;
15841;SDS011;8021;48.022;11.812;2022-07-11T14:57:30;0.10;;;0.10;;
15841;SDS011;8021;48.022;11.812;2022-07-11T14:59:57;0.10;;;0.10;;
15841;SDS011;8021;48.022;11.812;2022-07-11T15:02:25;0.10;;;0.10;;
15841;SDS011;8021;48.022;11.812;2022-07-11T15:05:12;0.05;;;0.00;;
15841;SDS011;8021;48.022;11.812;2022-07-11T15:07:40;0.10;;;0.10;;
15841;SDS011;8021;48.022;11.812;2022-07-11T15:10:25;0.10;;;0.10;;
15841;SDS011;8021;48.022;11.812;2022-07-11T15:13:15;0.10;;;0.10;;
15841;SDS011;8021;48.022;11.812;2022-07-11T15:15:42;0.10;;;0.10;;
15841;SDS011;8021;48.022;11.812;2022-07-11T15:18:10;0.10;;;0.10;;
15841;SDS011;8021;48.022;11.812;2022-07-11T15:20:41;0.10;;;0.10;;
15841;SDS011;8021;48.022;11.812;2022-07-11T15:23:08;0.10;;;0.10;;
15841;SDS011;8021;48.022;11.812;2022-07-11T15:25:36;0.20;;;0.20;;
15841;SDS011;8021;48.022;11.812;2022-07-11T15:28:04;0.10;;;0.10;;